createdAt,value
2022-10-08T01:20:47.512Z,100.00
2022-10-08T01:23:43.670Z,100.00
2022-10-08T01:26:49.107Z,100.00
2022-10-08T01:29:51.495Z,100.00
2022-10-08T01:32:26.720Z,100.00
2022-10-08T01:35:03.649Z,100.00
2022-10-08T01:37:36.962Z,100.00
2022-10-08T01:40:13.456Z,100.00
2022-10-08T01:42:44.501Z,100.00
2022-10-08T01:45:19.412Z,100.00
2022-10-08T01:47:50.897Z,100.00
2022-10-08T01:50:26.420Z,100.00
2022-10-08T01:53:10.883Z,100.00
2022-10-08T01:55:41.419Z,100.00
2022-10-08T01:58:14.370Z,100.00
2022-10-08T02:00:41.494Z,100.00
2022-10-08T02:03:10.640Z,100.00
2022-10-08T02:05:43.096Z,100.00
2022-10-08T02:08:10.050Z,100.00
2022-10-08T02:10:43.947Z,100.00
2022-10-08T02:13:14.001Z,100.00
2022-10-08T02:16:11.143Z,100.00
2022-10-08T02:18:59.236Z,100.00
2022-10-08T02:21:27.408Z,100.00
2022-10-08T02:24:19.454Z,100.00
2022-10-08T02:26:53.587Z,100.00
2022-10-08T02:29:33.058Z,100.00
2022-10-08T02:32:03.358Z,100.00
2022-10-08T02:34:40.552Z,100.00
2022-10-08T02:37:31.875Z,100.00
2022-10-08T02:40:06.758Z,100.00
2022-10-08T02:42:41.787Z,100.00
2022-10-08T02:45:19.605Z,100.00
2022-10-08T02:47:51.941Z,100.00
2022-10-08T02:50:24.178Z,100.00
2022-10-08T02:52:54.262Z,100.00
2022-10-08T02:55:33.268Z,100.00
2022-10-08T02:58:03.332Z,100.00
2022-10-08T03:00:35.186Z,100.00
2022-10-08T03:03:13.757Z,100.00
2022-10-08T03:05:43.932Z,100.00
2022-10-08T03:08:12.390Z,100.00
2022-10-08T03:10:39.871Z,100.00
2022-10-08T03:13:06.719Z,100.00
2022-10-08T03:15:36.436Z,100.00
2022-10-08T03:18:07.443Z,100.00
2022-10-08T03:20:40.415Z,100.00
2022-10-08T03:23:16.775Z,100.00
2022-10-08T03:25:42.977Z,100.00
2022-10-08T03:28:09.216Z,100.00
2022-10-08T03:30:35.404Z,100.00
2022-10-08T03:33:08.440Z,100.00
2022-10-08T03:35:34.665Z,100.00
2022-10-08T03:38:00.886Z,100.00
2022-10-08T03:40:27.724Z,100.00
2022-10-08T03:43:00.719Z,100.00
2022-10-08T03:45:30.705Z,100.00
2022-10-08T03:48:00.499Z,100.00
2022-10-08T03:50:29.889Z,100.00
2022-10-08T03:52:59.674Z,100.00
2022-10-08T03:55:29.237Z,100.00
2022-10-08T03:57:58.875Z,100.00
2022-10-08T04:00:32.102Z,100.00
2022-10-08T04:03:02.060Z,100.00
2022-10-08T04:05:31.697Z,100.00
2022-10-08T04:08:01.631Z,100.00
2022-10-08T04:10:30.931Z,100.00
2022-10-08T04:13:00.772Z,100.00
2022-10-08T04:15:30.983Z,100.00
2022-10-08T04:18:03.702Z,100.00
2022-10-08T04:20:33.633Z,100.00
2022-10-08T04:23:03.624Z,100.00
2022-10-08T04:25:33.448Z,100.00
2022-10-08T04:28:05.898Z,100.00
2022-10-08T04:30:32.443Z,100.00
2022-10-08T04:33:02.965Z,100.00
2022-10-08T04:35:36.890Z,100.00
2022-10-08T04:38:02.992Z,100.00
2022-10-08T04:40:32.556Z,100.00
2022-10-08T04:43:02.621Z,100.00
2022-10-08T04:45:44.670Z,100.00
2022-10-08T04:48:12.200Z,100.00
2022-10-08T04:50:38.905Z,100.00
2022-10-08T04:53:07.261Z,100.00
2022-10-08T04:55:37.141Z,100.00
2022-10-08T04:58:07.282Z,100.00
2022-10-08T05:00:36.931Z,100.00
2022-10-08T05:03:10.549Z,100.00
2022-10-08T05:05:40.920Z,100.00
2022-10-08T05:08:10.359Z,100.00
2022-10-08T05:10:39.331Z,100.00
2022-10-08T05:13:09.049Z,100.00
2022-10-08T05:15:38.740Z,100.00
2022-10-08T05:18:08.786Z,100.00
2022-10-08T05:20:38.135Z,100.00
2022-10-08T05:23:08.229Z,100.00
2022-10-08T05:25:38.013Z,100.00
2022-10-08T05:28:07.645Z,100.00
2022-10-08T05:30:40.579Z,100.00
2022-10-08T05:33:10.408Z,100.00
2022-10-08T05:35:40.027Z,100.00
2022-10-08T05:38:09.811Z,100.00
2022-10-08T05:40:39.539Z,100.00
2022-10-08T05:43:09.280Z,100.00
2022-10-08T05:45:38.990Z,100.00
2022-10-08T05:48:11.000Z,100.00
2022-10-08T05:50:41.275Z,100.00
2022-10-08T05:53:10.673Z,100.00
2022-10-08T05:55:40.306Z,100.00
2022-10-08T05:58:12.707Z,100.00
2022-10-08T06:00:41.559Z,100.00
2022-10-08T06:03:11.642Z,100.00
2022-10-08T06:05:41.209Z,100.00
2022-10-08T06:08:11.817Z,100.00
2022-10-08T06:10:48.912Z,100.00
2022-10-08T06:13:14.948Z,100.00
2022-10-08T06:16:03.870Z,100.00
2022-10-08T06:18:31.686Z,100.00
2022-10-08T06:21:05.338Z,100.00
2022-10-08T06:23:35.901Z,100.00
2022-10-08T06:26:03.619Z,100.00
2022-10-08T06:28:30.233Z,100.00
2022-10-08T06:30:58.586Z,100.00
2022-10-08T06:33:26.903Z,100.00
2022-10-08T06:35:53.159Z,100.00
2022-10-08T06:38:19.619Z,100.00
2022-10-08T06:40:48.019Z,100.00
2022-10-08T06:43:18.863Z,100.00
2022-10-08T06:45:47.787Z,100.00
2022-10-08T06:48:19.083Z,100.00
2022-10-08T06:51:00.394Z,100.00
2022-10-08T06:53:26.651Z,100.00
2022-10-08T06:56:05.296Z,100.00
2022-10-08T06:58:36.783Z,100.00
2022-10-08T07:01:12.521Z,100.00
2022-10-08T07:03:38.892Z,100.00
2022-10-08T07:06:07.583Z,100.00
2022-10-08T07:08:36.800Z,100.00
2022-10-08T07:11:07.368Z,100.00
2022-10-08T07:13:34.289Z,100.00
2022-10-08T07:16:16.940Z,100.00
2022-10-08T07:18:47.424Z,100.00
2022-10-08T07:21:15.461Z,100.00
2022-10-08T07:23:50.099Z,100.00
2022-10-08T07:26:24.268Z,100.00
2022-10-08T07:29:02.601Z,100.00
2022-10-08T07:31:34.987Z,100.00
2022-10-08T07:34:10.593Z,100.00
2022-10-08T07:36:37.506Z,100.00
2022-10-08T07:39:14.764Z,100.00
2022-10-08T07:41:45.665Z,100.00
2022-10-08T07:44:16.464Z,100.00
2022-10-08T07:46:47.785Z,100.00
2022-10-08T07:49:17.870Z,100.00
2022-10-08T07:51:47.968Z,100.00
2022-10-08T07:54:17.338Z,100.00
2022-10-08T07:56:47.360Z,100.00
2022-10-08T07:59:16.999Z,100.00
2022-10-08T08:01:47.413Z,100.00
2022-10-08T08:04:14.293Z,100.00
2022-10-08T08:06:48.908Z,100.00
2022-10-08T08:09:18.996Z,100.00
2022-10-08T08:11:48.846Z,100.00
2022-10-08T08:14:23.001Z,100.00
2022-10-08T08:16:53.251Z,100.00
2022-10-08T08:19:23.551Z,100.00
2022-10-08T08:21:49.740Z,100.00
2022-10-08T08:24:19.715Z,100.00
2022-10-08T08:26:50.869Z,100.00
2022-10-08T08:29:22.253Z,100.00
2022-10-08T08:31:49.374Z,100.00
2022-10-08T08:34:21.365Z,100.00
2022-10-08T08:36:55.486Z,100.00
2022-10-08T08:39:26.925Z,100.00
2022-10-08T08:42:16.749Z,100.00
2022-10-08T08:44:49.160Z,100.00
2022-10-08T08:47:27.215Z,100.00
2022-10-08T08:50:03.625Z,100.00
2022-10-08T08:52:37.728Z,100.00
2022-10-08T08:55:14.798Z,100.00
2022-10-08T08:58:07.280Z,100.00
2022-10-08T09:00:42.699Z,100.00
2022-10-08T09:03:12.878Z,100.00
2022-10-08T09:05:45.346Z,100.00
2022-10-08T09:08:19.096Z,100.00
2022-10-08T09:10:55.649Z,100.00
2022-10-08T09:13:47.526Z,100.00
2022-10-08T09:16:14.455Z,100.00
2022-10-08T09:18:49.276Z,100.00
2022-10-08T09:21:24.666Z,100.00
2022-10-08T09:23:54.970Z,100.00
2022-10-08T09:26:23.028Z,100.00
2022-10-08T09:28:51.851Z,100.00
2022-10-08T09:31:40.270Z,100.00
2022-10-08T09:34:10.495Z,100.00
2022-10-08T09:36:38.664Z,100.00
2022-10-08T09:39:23.700Z,100.00
2022-10-08T09:42:06.523Z,100.00
2022-10-08T09:44:44.650Z,100.00
2022-10-08T09:47:16.429Z,100.00
2022-10-08T09:49:49.276Z,100.00
2022-10-08T09:52:23.040Z,100.00
2022-10-08T09:55:09.310Z,100.00
2022-10-08T09:57:50.927Z,100.00
2022-10-08T10:00:32.198Z,100.00
2022-10-08T10:03:15.880Z,100.00
2022-10-08T10:05:50.096Z,100.00
2022-10-08T10:08:42.563Z,100.00
2022-10-08T10:11:17.095Z,100.00
2022-10-08T10:13:44.975Z,100.00
2022-10-08T10:16:24.877Z,100.00
2022-10-08T10:19:12.879Z,100.00
2022-10-08T10:22:00.810Z,100.00
2022-10-08T10:24:44.998Z,100.00
2022-10-08T10:27:31.046Z,100.00
2022-10-08T10:30:03.754Z,100.00
2022-10-08T10:32:37.584Z,100.00
2022-10-08T10:35:16.851Z,100.00
2022-10-08T10:37:52.046Z,100.00
2022-10-08T10:40:30.082Z,100.00
2022-10-08T10:43:12.292Z,100.00
2022-10-08T10:45:45.304Z,100.00
2022-10-08T10:48:13.551Z,100.00
2022-10-08T10:51:08.359Z,100.00
2022-10-08T10:53:54.503Z,100.00
2022-10-08T10:56:25.106Z,100.00
2022-10-08T10:59:24.530Z,100.00
2022-10-08T11:02:10.713Z,100.00
2022-10-08T11:04:49.175Z,100.00
2022-10-08T11:07:53.573Z,100.00
2022-10-08T11:10:49.668Z,100.00
2022-10-08T11:13:58.983Z,100.00
2022-10-08T11:16:45.084Z,100.00
2022-10-08T11:19:23.555Z,100.00
2022-10-08T11:22:11.662Z,100.00
2022-10-08T11:24:41.355Z,100.00
2022-10-08T11:27:18.202Z,100.00
2022-10-08T11:30:43.204Z,100.00
2022-10-08T11:33:15.339Z,100.00
2022-10-08T11:35:56.283Z,100.00
2022-10-08T11:38:34.800Z,100.00
2022-10-08T11:41:26.769Z,100.00
2022-10-08T11:44:01.068Z,100.00
2022-10-08T11:46:33.388Z,100.00
2022-10-08T11:49:15.458Z,100.00
2022-10-08T11:51:46.198Z,100.00
2022-10-08T11:54:37.773Z,100.00
2022-10-08T11:57:17.164Z,100.00
2022-10-08T12:00:40.916Z,100.00
2022-10-08T12:03:29.672Z,100.00
2022-10-08T12:06:14.962Z,100.00
2022-10-08T12:09:05.778Z,100.00
2022-10-08T12:11:31.997Z,100.00
2022-10-08T12:14:11.407Z,100.00
2022-10-08T12:16:46.870Z,100.00
2022-10-08T12:19:36.935Z,100.00
2022-10-08T12:22:16.863Z,100.00
2022-10-08T12:24:51.544Z,100.00
2022-10-08T12:27:26.101Z,100.00
2022-10-08T12:30:07.131Z,100.00
2022-10-08T12:32:41.182Z,100.00
2022-10-08T12:35:27.313Z,100.00
2022-10-08T12:38:15.786Z,100.00
2022-10-08T12:40:57.183Z,100.00
2022-10-08T12:43:38.137Z,100.00
2022-10-08T12:46:35.544Z,100.00
2022-10-08T12:49:32.320Z,96.11
2022-10-08T12:52:13.185Z,97.91
2022-10-08T12:54:56.297Z,92.06
2022-10-08T12:57:33.038Z,92.13
2022-10-08T13:00:09.728Z,91.23
2022-10-08T13:02:42.817Z,98.38
2022-10-08T13:05:34.046Z,91.33
2022-10-08T13:08:31.686Z,91.64
2022-10-08T13:11:00.424Z,92.84
2022-10-08T13:13:39.594Z,96.39
2022-10-08T13:16:11.744Z,95.23
2022-10-08T13:18:41.357Z,97.36
2022-10-08T13:21:27.461Z,93.02
2022-10-08T13:23:59.199Z,100.00
2022-10-08T13:26:54.751Z,100.00
2022-10-08T13:29:27.191Z,100.00
2022-10-08T13:32:10.688Z,100.00
2022-10-08T13:34:48.416Z,100.00
2022-10-08T13:37:21.423Z,100.00
2022-10-08T13:39:59.230Z,100.00
2022-10-08T13:42:33.872Z,100.00
2022-10-08T13:45:11.370Z,100.00
2022-10-08T13:47:41.441Z,100.00
2022-10-08T13:50:11.489Z,97.23
2022-10-08T13:52:47.115Z,99.26
2022-10-08T13:55:23.840Z,100.00
2022-10-08T13:57:50.450Z,100.00
2022-10-08T14:00:17.312Z,100.00
2022-10-08T14:02:51.504Z,98.90
2022-10-08T14:05:18.572Z,98.13
2022-10-08T14:07:46.709Z,98.73
2022-10-08T14:10:13.479Z,100.00
2022-10-08T14:12:45.794Z,99.48
2022-10-08T14:15:16.259Z,95.17
2022-10-08T14:17:44.582Z,97.32
2022-10-08T14:20:13.959Z,93.95
2022-10-08T14:22:43.320Z,94.64
2022-10-08T14:25:20.904Z,98.70
2022-10-08T14:27:47.248Z,97.94
2022-10-08T14:30:20.279Z,96.73
2022-10-08T14:32:47.437Z,97.05
2022-10-08T14:35:17.343Z,98.74
2022-10-08T14:37:47.047Z,99.04
2022-10-08T14:40:19.670Z,98.09
2022-10-08T14:42:47.328Z,100.00
2022-10-08T14:45:17.025Z,100.00
2022-10-08T14:47:46.596Z,100.00
2022-10-08T14:50:16.872Z,100.00
2022-10-08T14:52:46.918Z,100.00
2022-10-08T14:55:16.560Z,100.00
2022-10-08T14:57:49.936Z,100.00
2022-10-08T15:00:19.679Z,99.60
2022-10-08T15:02:49.876Z,98.51
2022-10-08T15:05:19.512Z,98.45
2022-10-08T15:07:49.315Z,98.15
2022-10-08T15:10:18.696Z,97.43
2022-10-08T15:12:48.991Z,99.35
2022-10-08T15:15:24.181Z,99.20
2022-10-08T15:17:55.786Z,98.05
2022-10-08T15:20:23.664Z,96.22
2022-10-08T15:22:53.416Z,95.65
2022-10-08T15:25:23.475Z,96.34
2022-10-08T15:27:54.073Z,95.41
2022-10-08T15:30:23.838Z,95.93
2022-10-08T15:33:02.510Z,92.72
2022-10-08T15:35:28.589Z,91.50
2022-10-08T15:37:59.836Z,90.75
2022-10-08T15:40:30.975Z,92.54
2022-10-08T15:43:00.098Z,91.13
2022-10-08T15:45:30.059Z,89.95
2022-10-08T15:47:59.718Z,89.52
2022-10-08T15:50:38.570Z,89.55
2022-10-08T15:53:07.875Z,90.24
2022-10-08T15:55:38.019Z,90.39
2022-10-08T15:58:08.109Z,90.63
2022-10-08T16:00:38.273Z,92.21
2022-10-08T16:03:07.780Z,91.50
2022-10-08T16:05:37.285Z,93.08
2022-10-08T16:08:10.042Z,91.75
2022-10-08T16:10:39.910Z,93.96
2022-10-08T16:13:09.520Z,93.62
2022-10-08T16:15:39.118Z,93.91
2022-10-08T16:18:08.920Z,93.36
2022-10-08T16:20:39.184Z,95.65
2022-10-08T16:23:08.985Z,95.69
2022-10-08T16:25:45.444Z,95.21
2022-10-08T16:28:12.264Z,95.28
2022-10-08T16:30:42.606Z,95.95
2022-10-08T16:33:12.682Z,96.78
2022-10-08T16:35:42.914Z,97.06
2022-10-08T16:38:12.892Z,98.15
2022-10-08T16:40:42.914Z,99.12
2022-10-08T16:43:13.135Z,100.00
2022-10-08T16:45:42.505Z,100.00
2022-10-08T16:48:11.817Z,100.00
2022-10-08T16:50:41.917Z,100.00
2022-10-08T16:53:14.784Z,100.00
2022-10-08T16:55:44.611Z,100.00
2022-10-08T16:58:14.292Z,100.00
2022-10-08T17:00:44.680Z,100.00
2022-10-08T17:03:14.275Z,100.00
2022-10-08T17:05:43.928Z,100.00
2022-10-08T17:08:13.625Z,100.00
2022-10-08T17:10:45.595Z,100.00
2022-10-08T17:13:15.594Z,100.00
2022-10-08T17:15:58.249Z,100.00
2022-10-08T17:18:25.929Z,100.00
2022-10-08T17:28:49.822Z,100.00
2022-10-08T17:36:25.162Z,100.00
2022-10-08T17:44:00.223Z,100.00
2022-10-08T17:55:21.953Z,100.00
2022-10-08T18:07:31.669Z,100.00
2022-10-08T18:31:06.616Z,100.00
2022-10-08T18:49:32.874Z,100.00
2022-10-08T18:56:04.859Z,100.00
2022-10-08T18:59:43.989Z,100.00
2022-10-08T19:07:15.118Z,100.00
2022-10-08T19:10:30.932Z,100.00
